Terminal Aerodrome Forecast
Issued by NWS

Home | Current Version | Previous Version | Text Only | Print | Product List | Glossary On
Versions: 1 2 3 4 5 6 7 8 9 10 11 12
883
FTUS44 KSJT 282342
TAFBBD
TAF
KBBD 282342Z 2900/2924 04011G17KT P6SM VCTS BKN040CB
      TEMPO 2901/2903 5SM -TSRA BKN035CB
     FM290600 04009KT P6SM VCSH OVC025
     FM290900 05007KT P6SM OVC015
     FM292000 07008KT P6SM BKN050
      AMD NOT SKED=

USA.gov is the U.S. government's official web portal to all federal, state and local government web resources and services.